Time;durP1;ratioP1;P1;durP2;ratioP2;P2;SDS_P1;SDS_P2;PMS_P1;PMS_P2;Temp;Humidity;BMP_temperature;BMP_pressure;BME280_temperature;BME280_humidity;BME280_pressure;Samples;Min_cycle;Max_cycle;Signal;HPM_P1;HPM_P2
2023/02/04 00:00:22;;;;;;;13.30;3.10;;;9.90;99.90;;;;;;5068443;28;20429;-73
2023/02/04 00:02:48;;;;;;;3.53;2.70;;;9.80;99.90;;;;;;5074121;28;20397;-72
2023/02/04 00:05:16;;;;;;;7.17;2.47;;;9.80;99.90;;;;;;5073659;28;20411;-73
2023/02/04 00:07:42;;;;;;;9.17;4.00;;;9.80;99.90;;;;;;5074011;28;20400;-73
2023/02/04 00:10:09;;;;;;;7.00;2.40;;;9.80;99.90;;;;;;5073756;28;21038;-72
2023/02/04 00:12:35;;;;;;;5.70;2.70;;;9.80;99.90;;;;;;5073790;28;20223;-73
2023/02/04 00:15:01;;;;;;;7.70;2.93;;;9.80;99.90;;;;;;5073448;28;20448;-73
2023/02/04 00:17:27;;;;;;;12.20;3.23;;;9.80;99.90;;;;;;5068127;28;20810;-73
2023/02/04 00:19:52;;;;;;;7.83;2.90;;;9.70;99.90;;;;;;5033618;28;20483;-73
2023/02/04 00:22:19;;;;;;;6.70;1.90;;;9.70;99.90;;;;;;5033586;28;20168;-72
2023/02/04 00:24:48;;;;;;;8.90;2.70;;;9.70;99.90;;;;;;5033552;28;20505;-72
2023/02/04 00:27:14;;;;;;;4.30;1.93;;;9.70;99.90;;;;;;5033964;28;20900;-73
2023/02/04 00:29:39;;;;;;;6.33;2.87;;;9.70;99.90;;;;;;5036786;28;20461;-71
2023/02/04 00:32:05;;;;;;;4.10;2.57;;;9.70;99.90;;;;;;5033552;28;20738;-72
2023/02/04 00:34:30;;;;;;;9.17;2.40;;;9.70;99.90;;;;;;5033144;28;20254;-72
2023/02/04 00:36:56;;;;;;;10.47;2.80;;;9.70;99.90;;;;;;5033105;28;20179;-71
2023/02/04 00:39:21;;;;;;;4.37;1.93;;;9.70;99.90;;;;;;5033259;28;20251;-72
2023/02/04 00:41:47;;;;;;;10.70;2.50;;;9.60;99.90;;;;;;5033293;28;20167;-73
2023/02/04 00:44:13;;;;;;;5.53;1.37;;;9.60;99.90;;;;;;5031983;28;20171;-73
2023/02/04 00:46:39;;;;;;;3.40;1.80;;;9.60;99.90;;;;;;5033989;28;20175;-73
2023/02/04 00:49:09;;;;;;;4.83;2.20;;;9.60;99.90;;;;;;5052773;28;20167;-72
2023/02/04 00:51:38;;;;;;;10.90;3.13;;;9.60;99.90;;;;;;5053044;28;20420;-72
2023/02/04 00:54:05;;;;;;;5.00;1.87;;;9.60;99.90;;;;;;5052950;28;20413;-73
2023/02/04 00:56:30;;;;;;;5.00;1.67;;;9.60;99.90;;;;;;5052658;28;20449;-71
2023/02/04 00:58:56;;;;;;;8.43;2.30;;;9.60;99.90;;;;;;5052753;28;20984;-73
2023/02/04 01:01:21;;;;;;;10.50;2.53;;;9.50;99.90;;;;;;5052941;28;20159;-72
2023/02/04 01:03:47;;;;;;;4.03;2.30;;;9.50;99.90;;;;;;5052720;28;20171;-72
2023/02/04 01:06:12;;;;;;;9.50;2.80;;;9.50;99.90;;;;;;5064121;28;20652;-73
2023/02/04 01:08:38;;;;;;;10.27;2.83;;;9.50;99.90;;;;;;5052634;28;20171;-73
2023/02/04 01:11:03;;;;;;;2.80;1.50;;;9.50;99.90;;;;;;5052680;28;20563;-72
2023/02/04 01:13:29;;;;;;;9.97;1.90;;;9.50;99.90;;;;;;5053007;28;20576;-72
2023/02/04 01:15:55;;;;;;;8.07;2.73;;;9.50;99.90;;;;;;5052338;28;20206;-73
2023/02/04 01:18:20;;;;;;;10.60;2.30;;;9.40;99.90;;;;;;5042340;28;20205;-72
2023/02/04 01:20:46;;;;;;;9.00;3.27;;;9.40;99.90;;;;;;5052374;28;20953;-73
2023/02/04 01:23:11;;;;;;;11.77;2.80;;;9.40;99.90;;;;;;5051300;28;20166;-72
2023/02/04 01:25:37;;;;;;;7.40;2.30;;;9.40;99.90;;;;;;5052264;28;20174;-73
2023/02/04 01:28:02;;;;;;;3.93;2.00;;;9.40;99.90;;;;;;5052577;28;20671;-73
2023/02/04 01:30:28;;;;;;;11.73;2.93;;;9.40;99.90;;;;;;5052284;28;20197;-73
2023/02/04 01:32:53;;;;;;;7.33;2.13;;;9.40;99.90;;;;;;5052434;28;20177;-71
2023/02/04 01:35:19;;;;;;;5.00;2.17;;;9.40;99.90;;;;;;5051964;28;20582;-73
2023/02/04 01:37:44;;;;;;;11.73;2.73;;;9.40;99.90;;;;;;5052268;28;20540;-73
2023/02/04 01:40:10;;;;;;;3.13;2.10;;;9.40;99.90;;;;;;5052196;28;20691;-72
2023/02/04 01:42:36;;;;;;;6.70;2.17;;;9.40;99.90;;;;;;5052032;28;20163;-72
2023/02/04 01:45:05;;;;;;;6.60;2.40;;;9.40;99.90;;;;;;5048253;28;20995;-71
2023/02/04 01:47:31;;;;;;;11.27;2.40;;;9.40;99.90;;;;;;5033468;28;20176;-73
2023/02/04 01:49:56;;;;;;;7.90;1.83;;;9.40;99.90;;;;;;5032221;28;20919;-72
2023/02/04 01:52:23;;;;;;;6.90;1.77;;;9.30;99.90;;;;;;5030803;28;20429;-72
2023/02/04 01:54:48;;;;;;;5.37;1.80;;;9.30;99.90;;;;;;5031852;28;20302;-72
2023/02/04 01:57:15;;;;;;;6.53;1.97;;;9.30;99.90;;;;;;5032158;28;20438;-72
2023/02/04 01:59:46;;;;;;;8.10;1.97;;;9.30;99.90;;;;;;5031926;28;20179;-72
2023/02/04 02:02:44;;;;;;;9.50;2.20;;;9.30;99.90;;;;;;5032050;28;20398;-72
2023/02/04 02:05:14;;;;;;;6.50;2.10;;;9.30;99.90;;;;;;5031912;28;20409;-73
2023/02/04 02:07:40;;;;;;;4.13;1.67;;;9.30;99.90;;;;;;5032037;28;20401;-72
2023/02/04 02:10:08;;;;;;;5.10;1.33;;;9.30;99.90;;;;;;5031751;28;20496;-72
2023/02/04 02:12:33;;;;;;;13.93;1.80;;;9.30;99.90;;;;;;5031967;28;20172;-72
2023/02/04 02:15:00;;;;;;;7.30;2.30;;;9.30;99.90;;;;;;5031522;28;20522;-72
2023/02/04 02:17:26;;;;;;;10.90;1.97;;;9.30;99.90;;;;;;5044091;28;20190;-71
2023/02/04 02:19:51;;;;;;;8.57;3.00;;;9.30;99.90;;;;;;5078331;28;20517;-71
2023/02/04 02:22:22;;;;;;;8.53;2.30;;;9.30;99.90;;;;;;5078549;28;20428;-71
2023/02/04 02:24:48;;;;;;;9.80;1.93;;;9.30;99.90;;;;;;5078090;28;20170;-70
2023/02/04 02:27:13;;;;;;;6.07;1.97;;;9.30;99.90;;;;;;5078415;28;20404;-71
2023/02/04 02:29:41;;;;;;;11.53;3.00;;;9.30;99.90;;;;;;5078316;28;20667;-72
2023/02/04 02:32:08;;;;;;;4.50;1.67;;;9.20;99.90;;;;;;5078187;28;20173;-72
2023/02/04 02:34:34;;;;;;;3.80;1.57;;;9.30;99.90;;;;;;5077738;28;20893;-73
2023/02/04 02:37:01;;;;;;;10.87;2.37;;;9.30;99.90;;;;;;5078324;28;20396;-73
2023/02/04 02:39:27;;;;;;;5.63;1.80;;;9.20;99.90;;;;;;5078148;28;20427;-73
2023/02/04 02:41:54;;;;;;;7.10;2.33;;;9.20;99.90;;;;;;5078272;28;20743;-74
2023/02/04 02:44:20;;;;;;;5.40;1.83;;;9.20;99.90;;;;;;5078024;28;20388;-72
2023/02/04 02:46:45;;;;;;;9.13;2.50;;;9.20;99.90;;;;;;5059552;28;20478;-74
2023/02/04 02:49:15;;;;;;;2.43;2.03;;;9.20;99.90;;;;;;5058090;28;20198;-71
2023/02/04 02:51:41;;;;;;;4.03;1.60;;;9.20;99.90;;;;;;5057968;28;20178;-72
2023/02/04 02:54:27;;;;;;;3.40;2.27;;;9.20;99.90;;;;;;5057721;28;21068;-72
2023/02/04 02:56:53;;;;;;;7.10;2.00;;;9.20;99.90;;;;;;5057411;28;20497;-71
2023/02/04 02:59:18;;;;;;;3.63;1.90;;;9.20;99.90;;;;;;5057358;28;20413;-72
2023/02/04 03:01:49;;;;;;;11.90;2.30;;;9.10;99.90;;;;;;5058068;28;20451;-73
2023/02/04 03:04:16;;;;;;;3.57;1.47;;;9.10;99.90;;;;;;5057945;28;20584;-72
2023/02/04 03:06:42;;;;;;;2.70;1.70;;;9.10;99.90;;;;;;5058131;28;20480;-71
2023/02/04 03:09:07;;;;;;;10.80;2.20;;;9.10;99.90;;;;;;5057838;28;20487;-72
2023/02/04 03:11:33;;;;;;;10.93;3.00;;;9.00;99.90;;;;;;5058060;28;20202;-71
2023/02/04 03:14:02;;;;;;;5.57;2.57;;;9.10;99.90;;;;;;5057900;28;20186;-71
2023/02/04 03:16:31;;;;;;;9.50;2.50;;;9.00;99.90;;;;;;5050421;28;20203;-72
2023/02/04 03:19:01;;;;;;;7.53;1.70;;;9.00;99.90;;;;;;5057615;28;20420;-74
2023/02/04 03:21:27;;;;;;;6.73;2.00;;;9.00;99.90;;;;;;5058441;28;20397;-73
2023/02/04 03:23:55;;;;;;;12.23;3.63;;;9.00;99.90;;;;;;5058291;28;20462;-72
2023/02/04 03:26:22;;;;;;;7.63;2.70;;;9.00;99.90;;;;;;5057713;28;20903;-72
2023/02/04 03:28:47;;;;;;;6.37;2.20;;;9.00;99.90;;;;;;5067817;28;20408;-71
2023/02/04 03:31:13;;;;;;;8.93;1.67;;;8.90;99.90;;;;;;5054696;28;20416;-73
2023/02/04 03:33:38;;;;;;;4.87;2.20;;;9.00;99.90;;;;;;5054716;28;20182;-72
2023/02/04 03:36:04;;;;;;;7.23;2.70;;;8.90;99.90;;;;;;5054156;28;20209;-72
2023/02/04 03:38:30;;;;;;;4.63;2.40;;;8.90;99.90;;;;;;5054772;28;20225;-72
2023/02/04 03:40:55;;;;;;;4.73;2.60;;;8.90;99.90;;;;;;5054324;28;20194;-73
2023/02/04 03:43:21;;;;;;;8.43;2.23;;;8.90;99.90;;;;;;5054418;28;20634;-72
2023/02/04 03:45:46;;;;;;;10.77;3.30;;;8.90;99.90;;;;;;5044099;28;20185;-73
2023/02/04 03:48:12;;;;;;;11.00;2.80;;;8.90;99.90;;;;;;5034382;28;20562;-72
2023/02/04 03:50:38;;;;;;;8.97;3.27;;;8.90;99.90;;;;;;5034263;28;20210;-72
2023/02/04 03:53:03;;;;;;;9.83;2.60;;;8.80;99.90;;;;;;5034299;28;20172;-71
2023/02/04 03:55:31;;;;;;;5.30;2.00;;;8.80;99.90;;;;;;5034033;28;20199;-71
2023/02/04 03:57:56;;;;;;;5.73;2.63;;;8.80;99.90;;;;;;5034206;28;20197;-71
2023/02/04 04:00:22;;;;;;;5.97;2.40;;;8.80;99.90;;;;;;5034109;28;20426;-72
2023/02/04 04:02:48;;;;;;;9.60;3.20;;;8.80;99.90;;;;;;5034034;28;20206;-73
2023/02/04 04:05:13;;;;;;;10.83;2.77;;;8.80;99.90;;;;;;5033855;28;20179;-72
2023/02/04 04:07:39;;;;;;;9.93;4.27;;;8.80;99.90;;;;;;5034151;28;20258;-74
2023/02/04 04:10:04;;;;;;;5.17;2.17;;;8.70;99.90;;;;;;5033828;28;20217;-71
2023/02/04 04:12:30;;;;;;;8.93;2.37;;;8.70;99.90;;;;;;5033991;28;20584;-74
2023/02/04 04:14:55;;;;;;;8.53;2.83;;;8.70;99.90;;;;;;5033710;28;20209;-71
2023/02/04 04:17:21;;;;;;;7.73;3.13;;;8.70;99.90;;;;;;5052872;28;20260;-74
2023/02/04 04:19:48;;;;;;;5.13;2.40;;;8.70;99.90;;;;;;5053677;28;20179;-72
2023/02/04 04:22:13;;;;;;;7.30;2.43;;;8.70;99.90;;;;;;5053814;28;20250;-73
2023/02/04 04:24:39;;;;;;;7.03;2.77;;;8.70;99.90;;;;;;5053343;28;20485;-73
2023/02/04 04:27:05;;;;;;;8.60;2.63;;;8.60;99.90;;;;;;5053663;28;20175;-74
2023/02/04 04:29:30;;;;;;;5.33;2.03;;;8.60;99.90;;;;;;5053420;28;20202;-72
2023/02/04 04:31:56;;;;;;;6.80;2.17;;;8.60;99.90;;;;;;5053607;28;20167;-71
2023/02/04 04:34:21;;;;;;;13.63;2.20;;;8.60;99.90;;;;;;5053058;28;20163;-71
2023/02/04 04:36:47;;;;;;;7.07;3.00;;;8.60;99.90;;;;;;5053375;28;20198;-71
2023/02/04 04:39:12;;;;;;;6.30;2.23;;;8.50;99.90;;;;;;5056405;28;20217;-70
2023/02/04 04:41:38;;;;;;;3.90;2.27;;;8.50;99.90;;;;;;5061284;28;20167;-72
2023/02/04 04:44:04;;;;;;;12.20;2.17;;;8.50;99.90;;;;;;5053188;28;20616;-72
2023/02/04 04:46:29;;;;;;;12.47;2.90;;;8.50;99.90;;;;;;5036214;28;20183;-73
2023/02/04 04:48:55;;;;;;;5.47;2.03;;;8.50;99.90;;;;;;5033294;28;20247;-70
2023/02/04 04:51:20;;;;;;;12.23;4.20;;;8.50;99.90;;;;;;5033245;28;20178;-70
2023/02/04 04:53:46;;;;;;;6.10;1.90;;;8.50;99.90;;;;;;5052705;28;20167;-73
2023/02/04 04:56:11;;;;;;;9.73;2.13;;;8.50;99.90;;;;;;5052570;28;20713;-72
2023/02/04 04:58:37;;;;;;;14.63;2.97;;;8.50;99.90;;;;;;5053060;28;20167;-70
2023/02/04 05:01:02;;;;;;;10.53;2.97;;;8.40;99.90;;;;;;5052938;28;20186;-73
2023/02/04 05:03:28;;;;;;;10.90;3.00;;;8.40;99.90;;;;;;5052770;28;20167;-71
2023/02/04 05:05:53;;;;;;;11.63;3.70;;;8.40;99.90;;;;;;5052620;28;20179;-71
2023/02/04 05:08:19;;;;;;;6.97;1.90;;;8.40;99.90;;;;;;5051549;28;20179;-71
2023/02/04 05:10:45;;;;;;;4.10;1.80;;;8.30;99.90;;;;;;5052686;28;20213;-72
2023/02/04 05:13:12;;;;;;;4.93;2.23;;;8.30;99.90;;;;;;5051326;28;20497;-73
2023/02/04 05:15:37;;;;;;;8.80;2.00;;;8.30;99.90;;;;;;5044420;28;20537;-73
2023/02/04 05:18:03;;;;;;;7.40;2.63;;;8.30;99.90;;;;;;5052617;28;20409;-72
2023/02/04 05:20:29;;;;;;;8.20;1.53;;;8.30;99.90;;;;;;5052571;28;20191;-72
2023/02/04 05:22:55;;;;;;;12.17;2.20;;;8.30;99.90;;;;;;5052518;28;20688;-72
2023/02/04 05:25:21;;;;;;;11.40;2.70;;;8.30;99.90;;;;;;5052272;28;20171;-73
2023/02/04 05:27:47;;;;;;;13.90;2.50;;;8.30;99.90;;;;;;5052515;28;20485;-71
2023/02/04 05:30:14;;;;;;;2.43;1.70;;;8.30;99.90;;;;;;5052318;28;20430;-73
2023/02/04 05:32:40;;;;;;;5.23;2.27;;;8.30;99.90;;;;;;5052478;28;20821;-72
2023/02/04 05:35:06;;;;;;;9.37;2.30;;;8.20;99.90;;;;;;5051992;28;20453;-72
2023/02/04 05:37:31;;;;;;;8.57;2.97;;;8.20;99.90;;;;;;5052338;28;20166;-71
2023/02/04 05:39:57;;;;;;;7.73;1.87;;;8.20;99.90;;;;;;5052078;28;20795;-73
2023/02/04 05:42:22;;;;;;;4.70;1.83;;;8.20;99.90;;;;;;5052200;28;20166;-73
2023/02/04 05:44:48;;;;;;;8.60;1.73;;;8.10;99.90;;;;;;5048451;28;20263;-72
2023/02/04 05:47:14;;;;;;;2.77;1.90;;;8.00;99.90;;;;;;5037003;28;20174;-72
2023/02/04 05:49:39;;;;;;;8.90;2.37;;;8.00;99.90;;;;;;5063234;28;20190;-74
2023/02/04 05:52:05;;;;;;;6.17;2.57;;;8.00;99.90;;;;;;5051675;28;20175;-73
2023/02/04 05:54:30;;;;;;;9.43;2.00;;;8.00;99.90;;;;;;5051792;28;20171;-74
2023/02/04 05:56:56;;;;;;;6.23;3.07;;;8.00;99.90;;;;;;5052008;28;20167;-74
2023/02/04 05:59:22;;;;;;;6.73;2.00;;;7.90;99.90;;;;;;5051949;28;20183;-71
2023/02/04 06:01:47;;;;;;;10.23;2.40;;;7.90;99.90;;;;;;5050681;28;20623;-73
2023/02/04 06:04:15;;;;;;;11.37;3.07;;;7.90;99.90;;;;;;5051890;28;20814;-73
2023/02/04 06:06:41;;;;;;;5.30;2.00;;;7.90;99.90;;;;;;5051855;28;20167;-71
2023/02/04 06:09:06;;;;;;;10.17;1.70;;;7.90;99.90;;;;;;5051729;28;20759;-71
2023/02/04 06:11:32;;;;;;;9.53;2.80;;;8.00;99.90;;;;;;5051859;28;20409;-71
2023/02/04 06:13:58;;;;;;;6.70;3.10;;;8.00;99.90;;;;;;5051469;28;20190;-73
2023/02/04 06:16:23;;;;;;;11.80;2.70;;;8.00;99.90;;;;;;5040233;28;20191;-70
2023/02/04 06:18:49;;;;;;;5.93;1.93;;;8.00;99.90;;;;;;5031883;28;20254;-71
2023/02/04 06:21:15;;;;;;;13.63;2.50;;;8.00;99.90;;;;;;5031857;28;20168;-72
2023/02/04 06:23:40;;;;;;;5.70;2.20;;;8.00;99.90;;;;;;5031876;28;20171;-71
2023/02/04 06:26:06;;;;;;;3.13;2.00;;;8.10;99.90;;;;;;5031522;28;20196;-71
2023/02/04 06:28:31;;;;;;;5.03;2.60;;;8.10;99.90;;;;;;5032712;28;20175;-72
2023/02/04 06:30:57;;;;;;;20.27;2.50;;;8.10;99.90;;;;;;5050376;28;20205;-72
2023/02/04 06:33:22;;;;;;;6.13;1.83;;;8.10;99.90;;;;;;5051609;28;20163;-72
2023/02/04 06:35:49;;;;;;;3.63;2.00;;;8.10;99.90;;;;;;5051299;28;20606;-72
2023/02/04 06:38:14;;;;;;;6.47;2.20;;;8.10;99.90;;;;;;5050309;28;20421;-72
2023/02/04 06:40:40;;;;;;;7.87;3.30;;;8.20;99.90;;;;;;5051477;28;20421;-71
2023/02/04 06:43:06;;;;;;;12.37;2.40;;;8.10;99.90;;;;;;5051575;28;20254;-73
2023/02/04 06:45:31;;;;;;;9.40;2.33;;;8.20;99.90;;;;;;5035792;28;20180;-70
2023/02/04 06:47:57;;;;;;;13.03;2.30;;;8.20;99.90;;;;;;5031711;28;20675;-72
2023/02/04 06:50:23;;;;;;;8.77;2.33;;;8.20;99.90;;;;;;5031513;28;20704;-73
2023/02/04 06:52:48;;;;;;;9.03;2.83;;;8.20;99.90;;;;;;5031524;28;20267;-72
2023/02/04 06:55:15;;;;;;;3.23;2.17;;;8.20;99.90;;;;;;5029974;28;20205;-72
2023/02/04 06:57:41;;;;;;;6.57;3.13;;;8.20;99.90;;;;;;5031494;28;20164;-71
2023/02/04 07:00:08;;;;;;;6.90;1.70;;;8.20;99.90;;;;;;5056313;28;20425;-72
2023/02/04 07:02:35;;;;;;;6.20;3.00;;;8.20;99.90;;;;;;5067283;28;20629;-71
2023/02/04 07:05:00;;;;;;;8.93;2.27;;;8.20;99.90;;;;;;5073780;28;20479;-71
2023/02/04 07:07:26;;;;;;;3.50;2.70;;;8.20;99.90;;;;;;5075141;28;20442;-71
2023/02/04 07:09:52;;;;;;;6.20;2.70;;;8.20;99.90;;;;;;5074937;28;20667;-72
2023/02/04 07:12:17;;;;;;;6.80;2.67;;;8.20;99.90;;;;;;5074938;28;20162;-73
2023/02/04 07:14:43;;;;;;;7.83;2.90;;;8.20;99.90;;;;;;5073351;28;20170;-72
2023/02/04 07:17:09;;;;;;;10.47;2.50;;;8.20;99.90;;;;;;5074841;28;20251;-72
2023/02/04 07:19:35;;;;;;;11.93;2.70;;;8.20;99.90;;;;;;5074706;28;20198;-72
2023/02/04 07:22:01;;;;;;;5.80;2.43;;;8.20;99.90;;;;;;5074811;28;20165;-72
2023/02/04 07:24:27;;;;;;;6.43;2.27;;;8.20;99.90;;;;;;5074544;28;20415;-73
2023/02/04 07:26:52;;;;;;;14.53;2.97;;;8.20;99.90;;;;;;5074819;28;20483;-73
2023/02/04 07:29:18;;;;;;;5.47;2.03;;;8.20;99.90;;;;;;5055009;28;20421;-72
2023/02/04 07:31:44;;;;;;;8.63;3.10;;;8.20;99.90;;;;;;5054652;28;20175;-72
2023/02/04 07:34:12;;;;;;;6.37;2.00;;;8.30;99.90;;;;;;5054468;28;20167;-73
2023/02/04 07:36:38;;;;;;;6.73;3.33;;;8.30;99.90;;;;;;5054411;28;20487;-73
2023/02/04 07:39:03;;;;;;;4.63;3.00;;;8.30;99.90;;;;;;5053122;28;20433;-73
2023/02/04 07:41:29;;;;;;;6.30;3.30;;;8.40;99.90;;;;;;5050982;28;20198;-73
2023/02/04 07:43:54;;;;;;;7.27;3.40;;;8.50;99.90;;;;;;5054293;28;20169;-73
2023/02/04 07:46:20;;;;;;;6.70;2.83;;;8.50;99.90;;;;;;5039651;28;20237;-72
2023/02/04 07:48:45;;;;;;;12.80;3.50;;;8.60;99.90;;;;;;5034070;28;20226;-72
2023/02/04 07:51:11;;;;;;;8.90;2.63;;;8.70;99.90;;;;;;5034297;28;20257;-72
2023/02/04 07:53:36;;;;;;;8.73;5.13;;;8.80;99.90;;;;;;5033027;28;20621;-72
2023/02/04 07:56:02;;;;;;;20.37;3.87;;;8.90;99.90;;;;;;5033797;28;20645;-72
2023/02/04 07:58:27;;;;;;;12.67;3.77;;;8.90;99.90;;;;;;5034083;28;20182;-73
2023/02/04 08:00:53;;;;;;;3.53;2.43;;;9.00;99.90;;;;;;5035769;28;20267;-72
2023/02/04 08:03:18;;;;;;;6.60;3.03;;;9.10;99.90;;;;;;5054012;28;20179;-73
2023/02/04 08:05:44;;;;;;;5.27;2.40;;;9.20;99.90;;;;;;5053776;28;20206;-73
2023/02/04 08:08:09;;;;;;;8.20;2.80;;;9.30;99.90;;;;;;5052853;28;20216;-73
2023/02/04 08:10:35;;;;;;;15.27;2.87;;;9.40;99.90;;;;;;5055849;28;20203;-72
2023/02/04 08:13:00;;;;;;;7.13;3.20;;;9.60;99.90;;;;;;5072728;28;20170;-72
2023/02/04 08:15:26;;;;;;;7.43;3.00;;;9.70;99.90;;;;;;5073419;28;20208;-72
2023/02/04 08:17:51;;;;;;;8.27;3.10;;;9.90;99.90;;;;;;5073622;28;20208;-70
2023/02/04 08:20:17;;;;;;;11.27;2.27;;;10.00;99.90;;;;;;5073719;28;20190;-70
2023/02/04 08:22:43;;;;;;;11.83;3.37;;;10.10;99.90;;;;;;5073653;28;20173;-70
2023/02/04 08:25:10;;;;;;;8.90;3.07;;;10.30;99.90;;;;;;5073384;28;20245;-71
2023/02/04 08:27:36;;;;;;;6.90;3.17;;;10.40;99.90;;;;;;5073334;28;20408;-70
2023/02/04 08:30:02;;;;;;;7.80;3.13;;;10.60;99.90;;;;;;5064686;28;20442;-72
2023/02/04 08:32:28;;;;;;;15.53;3.30;;;10.70;99.90;;;;;;5032055;28;20175;-71
2023/02/04 08:34:54;;;;;;;14.57;2.87;;;10.90;99.90;;;;;;5033296;28;20511;-71
2023/02/04 08:37:20;;;;;;;9.10;4.00;;;11.10;99.90;;;;;;5033458;28;20818;-71
2023/02/04 08:39:46;;;;;;;9.17;2.93;;;11.20;99.90;;;;;;5033523;28;20736;-70
2023/02/04 08:42:12;;;;;;;16.27;3.73;;;11.30;99.90;;;;;;5033500;28;20255;-70
2023/02/04 08:44:38;;;;;;;14.37;3.47;;;11.50;99.90;;;;;;5033248;28;20765;-72
2023/02/04 08:47:04;;;;;;;10.53;3.67;;;11.80;99.90;;;;;;5032384;28;20415;-70
2023/02/04 08:49:29;;;;;;;10.47;3.40;;;12.00;99.90;;;;;;5033794;28;20219;-71
2023/02/04 08:51:55;;;;;;;15.23;4.10;;;12.10;99.90;;;;;;5033411;28;20565;-71
2023/02/04 08:54:20;;;;;;;6.87;2.07;;;12.20;99.90;;;;;;5033126;28;20175;-72
2023/02/04 08:56:46;;;;;;;12.63;4.20;;;12.30;99.90;;;;;;5033296;28;20203;-71
2023/02/04 08:59:11;;;;;;;9.17;2.40;;;12.50;99.90;;;;;;5033387;28;20556;-71
2023/02/04 09:01:37;;;;;;;6.43;3.13;;;12.50;99.90;;;;;;5052060;28;20178;-72
2023/02/04 09:04:02;;;;;;;10.20;3.37;;;12.70;99.90;;;;;;5053133;28;20536;-73
2023/02/04 09:06:28;;;;;;;13.33;2.73;;;12.80;99.90;;;;;;5053024;28;20692;-71
2023/02/04 09:08:53;;;;;;;16.87;2.83;;;13.10;99.90;;;;;;5051766;28;20640;-72
2023/02/04 09:11:19;;;;;;;10.00;2.63;;;13.30;99.90;;;;;;5052942;28;20185;-71
2023/02/04 09:13:44;;;;;;;11.07;3.97;;;13.60;99.90;;;;;;5053056;28;20545;-71
2023/02/04 09:16:10;;;;;;;12.70;2.90;;;13.90;99.90;;;;;;5052691;28;20201;-71
2023/02/04 09:18:35;;;;;;;12.43;2.83;;;14.20;99.90;;;;;;5062527;28;20198;-72
2023/02/04 09:21:04;;;;;;;8.77;2.80;;;14.40;99.90;;;;;;5054300;28;20229;-71
2023/02/04 09:23:30;;;;;;;16.77;4.03;;;14.60;99.90;;;;;;5052978;28;20639;-70
2023/02/04 09:25:55;;;;;;;8.13;3.40;;;14.60;99.90;;;;;;5052150;28;20414;-70
2023/02/04 09:28:21;;;;;;;13.47;4.53;;;14.50;99.90;;;;;;5052243;28;20177;-72
2023/02/04 09:30:46;;;;;;;14.17;3.07;;;14.30;99.90;;;;;;5038394;28;20708;-72
2023/02/04 09:33:15;;;;;;;11.00;3.13;;;14.30;99.90;;;;;;5032767;28;20269;-71
2023/02/04 09:35:40;;;;;;;13.10;5.20;;;14.20;99.90;;;;;;5032451;28;20654;-71
2023/02/04 09:38:06;;;;;;;20.83;5.23;;;14.20;99.90;;;;;;5032580;28;20407;-72
2023/02/04 09:40:35;;;;;;;14.23;4.63;;;14.10;99.90;;;;;;5032455;28;20187;-72
2023/02/04 09:43:02;;;;;;;14.93;6.47;;;14.00;99.90;;;;;;5032518;28;20226;-71
2023/02/04 09:45:32;;;;;;;18.00;6.83;;;13.90;99.90;;;;;;5039659;28;20417;-72
2023/02/04 09:48:01;;;;;;;16.40;6.43;;;13.80;99.90;;;;;;5051367;28;20421;-72
2023/02/04 09:50:27;;;;;;;14.43;6.00;;;13.70;99.90;;;;;;5052432;28;20480;-72
2023/02/04 09:52:59;;;;;;;9.63;5.40;;;13.60;99.90;;;;;;5052340;28;20457;-71
2023/02/04 09:55:33;;;;;;;15.97;6.50;;;13.50;99.90;;;;;;5052167;28;20510;-72
2023/02/04 09:57:59;;;;;;;16.77;6.40;;;13.50;99.90;;;;;;5052293;28;20402;-71
2023/02/04 10:00:27;;;;;;;10.53;5.83;;;13.60;99.90;;;;;;5040841;28;20970;-72
2023/02/04 10:02:53;;;;;;;12.50;5.40;;;13.70;99.90;;;;;;5032454;28;20179;-71
2023/02/04 10:05:26;;;;;;;12.13;5.30;;;13.90;99.90;;;;;;5032191;28;20881;-72
2023/02/04 10:07:51;;;;;;;14.77;6.30;;;14.00;99.90;;;;;;5032320;28;20184;-71
2023/02/04 10:10:24;;;;;;;14.53;7.07;;;14.10;99.90;;;;;;5032035;28;20457;-72
2023/02/04 10:12:51;;;;;;;18.77;7.10;;;14.20;99.90;;;;;;5031089;28;20542;-72
2023/02/04 10:15:19;;;;;;;21.07;7.50;;;14.30;99.90;;;;;;5031872;28;20450;-72
2023/02/04 10:17:46;;;;;;;15.30;7.10;;;14.40;99.90;;;;;;5032231;28;20407;-71
2023/02/04 10:20:16;;;;;;;11.43;6.47;;;14.50;99.90;;;;;;5032025;28;20433;-71
2023/02/04 10:22:42;;;;;;;17.40;7.00;;;14.80;99.90;;;;;;5032069;28;20406;-71
2023/02/04 10:25:17;;;;;;;23.57;8.43;;;15.00;99.90;;;;;;5031662;28;20418;-69
2023/02/04 10:27:51;;;;;;;10.60;6.43;;;15.50;99.90;;;;;;5031907;28;20502;-71
2023/02/04 10:30:22;;;;;;;16.73;7.43;;;15.80;99.90;;;;;;5045971;28;20448;-71
2023/02/04 10:32:49;;;;;;;14.70;7.97;;;16.30;99.90;;;;;;5030670;28;20422;-71
2023/02/04 10:35:17;;;;;;;11.57;6.43;;;16.50;99.90;;;;;;5031560;28;20961;-71
2023/02/04 10:37:43;;;;;;;15.00;7.43;;;16.80;99.90;;;;;;5032465;28;20760;-70
2023/02/04 10:40:26;;;;;;;12.00;7.67;;;16.90;99.90;;;;;;5034787;28;20437;-70
2023/02/04 10:42:52;;;;;;;22.77;9.47;;;17.00;99.90;;;;;;5035968;28;20164;-70
2023/02/04 10:45:22;;;;;;;20.10;7.50;;;16.90;99.90;;;;;;5041419;28;20496;-73
2023/02/04 10:47:53;;;;;;;12.20;6.10;;;16.80;99.90;;;;;;5055681;28;20171;-72
2023/02/04 10:50:21;;;;;;;19.83;8.53;;;16.70;99.90;;;;;;5055607;28;20464;-71
2023/02/04 10:54:28;;;;;;;14.03;6.67;;;17.00;99.90;;;;;;5055715;28;20858;-71
2023/02/04 10:55:40;;;;;;;10.70;5.97;;;17.40;99.90;;;;;;5055174;28;20837;-71
2023/02/04 10:58:10;;;;;;;12.87;5.93;;;18.20;99.90;;;;;;5055521;28;20409;-70
2023/02/04 11:00:36;;;;;;;16.53;6.57;;;18.90;99.90;;;;;;5045388;28;20277;-72
2023/02/04 11:03:20;;;;;;;13.93;6.60;;;19.30;99.90;;;;;;5055310;28;20513;-73
2023/02/04 11:05:46;;;;;;;15.00;5.83;;;19.70;99.10;;;;;;5055285;28;20249;-71
2023/02/04 11:08:21;;;;;;;13.80;6.00;;;20.30;97.10;;;;;;5055315;28;20551;-71
2023/02/04 11:10:53;;;;;;;20.00;6.37;;;20.70;94.30;;;;;;5055348;28;20283;-71
2023/02/04 11:13:38;;;;;;;11.10;5.73;;;21.00;91.60;;;;;;5054115;28;20413;-71
2023/02/04 11:16:09;;;;;;;11.20;5.37;;;21.50;87.30;;;;;;5055044;28;20449;-71
2023/02/04 11:18:46;;;;;;;20.10;5.90;;;22.10;81.30;;;;;;5035293;28;20402;-72
2023/02/04 11:21:20;;;;;;;10.20;5.57;;;22.90;78.20;;;;;;5035234;28;20429;-71
2023/02/04 11:23:46;;;;;;;9.73;5.60;;;24.20;77.60;;;;;;5035104;28;20552;-71
2023/02/04 11:26:17;;;;;;;10.07;4.20;;;26.20;69.60;;;;;;5035012;28;20880;-72
2023/02/04 11:29:14;;;;;;;15.37;5.50;;;27.90;61.00;;;;;;5035251;28;20401;-72
2023/02/04 11:31:48;;;;;;;9.37;5.23;;;29.40;56.90;;;;;;5030873;28;20892;-70
2023/02/04 11:34:14;;;;;;;10.33;4.80;;;30.10;51.90;;;;;;5039083;28;20454;-74
2023/02/04 11:36:58;;;;;;;10.13;4.93;;;30.70;49.20;;;;;;5056593;28;20453;-71
2023/02/04 11:39:30;;;;;;;9.20;4.30;;;30.50;46.90;;;;;;5054744;28;20183;-70
2023/02/04 11:41:58;;;;;;;9.50;5.40;;;30.20;45.80;;;;;;5053701;28;20762;-70
2023/02/04 11:44:24;;;;;;;11.73;4.93;;;29.80;45.10;;;;;;5054615;28;20409;-70
2023/02/04 11:46:54;;;;;;;10.43;4.33;;;29.30;43.80;;;;;;5054682;28;20406;-70
2023/02/04 11:49:21;;;;;;;10.40;4.10;;;28.70;43.90;;;;;;5040706;28;20444;-70
2023/02/04 11:51:47;;;;;;;7.37;4.93;;;28.20;44.60;;;;;;5034495;28;20537;-71
2023/02/04 11:54:15;;;;;;;9.33;4.23;;;27.70;44.50;;;;;;5034456;28;20844;-71
2023/02/04 11:56:41;;;;;;;11.27;4.57;;;27.10;44.20;;;;;;5034516;28;20195;-70
2023/02/04 11:59:10;;;;;;;13.33;4.63;;;26.50;45.40;;;;;;5034413;28;20508;-71
2023/02/04 12:01:35;;;;;;;9.37;4.93;;;26.00;45.30;;;;;;5034338;28;20168;-72
2023/02/04 12:04:06;;;;;;;8.17;3.47;;;25.90;46.00;;;;;;5034312;28;20941;-70
2023/02/04 12:06:36;;;;;;;11.20;4.43;;;25.80;46.30;;;;;;5033932;28;20187;-70
2023/02/04 12:09:05;;;;;;;9.30;4.53;;;25.80;46.80;;;;;;5034229;28;20449;-70
2023/02/04 12:11:31;;;;;;;10.43;4.50;;;25.60;46.80;;;;;;5034151;28;20394;-70
2023/02/04 12:14:17;;;;;;;16.83;5.50;;;25.00;46.30;;;;;;5032848;28;20548;-71
2023/02/04 12:16:48;;;;;;;13.57;3.97;;;24.40;46.90;;;;;;5033786;28;20191;-70
2023/02/04 12:19:14;;;;;;;10.30;5.00;;;23.90;47.50;;;;;;5050444;28;20487;-73
2023/02/04 12:21:40;;;;;;;11.00;3.60;;;23.30;47.80;;;;;;5053965;28;20397;-70
2023/02/04 12:24:06;;;;;;;8.53;3.60;;;22.70;47.80;;;;;;5052890;28;20681;-71
2023/02/04 12:26:31;;;;;;;8.70;3.37;;;22.40;48.70;;;;;;5053671;28;20449;-71
2023/02/04 12:29:00;;;;;;;9.97;3.10;;;22.20;49.40;;;;;;5053774;28;20497;-71
2023/02/04 12:31:25;;;;;;;13.33;3.20;;;22.20;50.10;;;;;;5053801;28;20170;-70
2023/02/04 12:33:53;;;;;;;8.93;3.40;;;22.30;50.20;;;;;;5052380;28;20397;-71
2023/02/04 12:36:18;;;;;;;8.40;3.33;;;22.40;49.80;;;;;;5052298;28;20202;-73
2023/02/04 12:38:44;;;;;;;9.20;3.83;;;22.50;49.30;;;;;;5053698;28;20965;-71
2023/02/04 12:41:10;;;;;;;9.43;2.93;;;22.50;49.40;;;;;;5057761;28;20246;-73
2023/02/04 12:43:35;;;;;;;12.83;3.43;;;22.60;50.00;;;;;;5068161;28;20658;-71
2023/02/04 12:46:01;;;;;;;7.97;3.83;;;22.80;50.00;;;;;;5058731;28;20211;-71
2023/02/04 12:48:26;;;;;;;9.30;3.17;;;23.20;49.80;;;;;;5053190;28;20179;-70